Plainfield, New York
Current Conditions -  °F | °C
As of 5:53 AM on Thursday 27 Nov 2014 (Local Time) from KRME Reporting Station
Light Snow Light Snow  
Wind Chill: 22°   Ceiling: 1300
Heat Index: 27°   Visibility: 8mi
Dew Point: 26°   Wind: 5mph
Humidity: 96%   Direction: 270°W
Pressure: 29.99"   Gusts: NA
Location:  42.8676°N, 75.1875°W
Report Text: KRME 271053Z AUTO 27004KT 8SM -SN BKN013 OVC019 M03/M03 A2999 RMK AO2 SLP162 P0000 T10281033
Loading
Personal Weather Stations






























Interactive Weather Map New forecast layout! Learn more

10-Day Weather Forecast

Advertisements
Track Severe Weather on mobile